createdAt,value
2022-10-19T00:01:19.133Z,98628.03
2022-10-19T00:06:32.386Z,98626.65
2022-10-19T00:09:03.612Z,98624.08
2022-10-19T00:11:33.247Z,98624.65
2022-10-19T00:14:01.672Z,98622.96
2022-10-19T00:16:34.022Z,98621.37
2022-10-19T00:19:04.633Z,98618.02
2022-10-19T00:21:32.930Z,98618.16
2022-10-19T00:24:00.712Z,98615.47
2022-10-19T00:26:28.602Z,98608.77
2022-10-19T00:28:56.953Z,98624.88
2022-10-19T00:31:25.642Z,98628.34
2022-10-19T00:33:56.800Z,98629.85
2022-10-19T00:36:26.664Z,98625.37
2022-10-19T00:38:55.609Z,98625.15
2022-10-19T00:41:27.503Z,98621.81
2022-10-19T00:44:04.283Z,98620.35
2022-10-19T00:46:35.936Z,98620.15
2022-10-19T00:49:20.541Z,98613.83
2022-10-19T00:52:01.821Z,98612.67
2022-10-19T00:54:33.027Z,98610.88
2022-10-19T00:57:01.057Z,98605.10
2022-10-19T00:59:31.944Z,98605.27
2022-10-19T01:02:02.808Z,98606.31
2022-10-19T01:04:34.039Z,98602.25
2022-10-19T01:07:04.731Z,98597.96
2022-10-19T01:09:32.569Z,98598.36
2022-10-19T01:12:33.229Z,98589.54
2022-10-19T01:15:29.007Z,98590.70
2022-10-19T01:18:22.397Z,98585.93
2022-10-19T01:21:08.481Z,98580.23
2022-10-19T01:23:39.462Z,98576.39
2022-10-19T01:26:42.875Z,98576.10
2022-10-19T01:29:16.744Z,98573.70
2022-10-19T01:31:57.975Z,98574.32
2022-10-19T01:34:32.610Z,98577.12
2022-10-19T01:37:24.656Z,98576.91
2022-10-19T01:40:03.079Z,98571.85
2022-10-19T01:42:56.878Z,98563.19
2022-10-19T01:45:36.702Z,98555.38
2022-10-19T01:48:14.616Z,98562.05
2022-10-19T01:50:59.229Z,98562.50
2022-10-19T01:53:32.555Z,98561.84
2022-10-19T01:56:03.422Z,98560.64
2022-10-19T01:58:35.967Z,98559.36
2022-10-19T02:01:08.489Z,98561.36
2022-10-19T02:03:38.176Z,98564.60
2022-10-19T02:06:09.071Z,98565.48
2022-10-19T02:08:52.310Z,98562.02
2022-10-19T02:11:22.329Z,98563.91
2022-10-19T02:13:54.913Z,98567.16
2022-10-19T02:16:29.406Z,98564.17
2022-10-19T02:19:00.266Z,98560.27
2022-10-19T02:21:28.865Z,98556.97
2022-10-19T02:23:56.677Z,98557.05
2022-10-19T02:26:24.510Z,98551.23
2022-10-19T02:28:55.174Z,98552.75
2022-10-19T02:31:23.695Z,98549.67
2022-10-19T02:33:51.975Z,98547.52
2022-10-19T02:36:20.207Z,98544.33
2022-10-19T02:38:48.148Z,98541.53
2022-10-19T02:41:20.874Z,98537.59
2022-10-19T02:43:51.652Z,98538.02
2022-10-19T02:49:14.433Z,98542.98
2022-10-19T02:52:09.146Z,98540.82
2022-10-19T02:54:38.185Z,98537.68
2022-10-19T02:57:16.668Z,98535.45
2022-10-19T02:59:44.781Z,98536.15
2022-10-19T03:02:13.679Z,98540.22
2022-10-19T03:04:41.916Z,98548.60
2022-10-19T03:07:10.681Z,98546.08
2022-10-19T03:09:38.527Z,98542.55
2022-10-19T03:12:06.531Z,98542.17
2022-10-19T03:14:34.380Z,98537.94
2022-10-19T03:17:02.945Z,98543.70
2022-10-19T03:19:30.994Z,98548.05
2022-10-19T03:21:58.831Z,98548.09
2022-10-19T03:24:27.094Z,98550.62
2022-10-19T03:26:54.920Z,98544.30
2022-10-19T03:29:22.947Z,98543.64
2022-10-19T03:31:50.774Z,98547.14
2022-10-19T03:34:18.751Z,98547.94
2022-10-19T03:36:46.676Z,98544.45
2022-10-19T03:39:16.175Z,98545.34
2022-10-19T03:41:44.351Z,98541.89
2022-10-19T03:44:12.261Z,98541.59
2022-10-19T03:46:40.392Z,98542.38
2022-10-19T03:49:09.330Z,98533.15
2022-10-19T03:51:37.257Z,98528.30
2022-10-19T03:54:08.093Z,98525.73
2022-10-19T03:56:36.543Z,98529.52
2022-10-19T03:59:06.386Z,98532.17
2022-10-19T04:01:39.921Z,98529.59
2022-10-19T04:04:12.544Z,98527.08
2022-10-19T04:06:42.347Z,98521.95
2022-10-19T04:09:13.973Z,98524.17
2022-10-19T04:11:42.391Z,98521.85
2022-10-19T04:14:18.998Z,98522.04
2022-10-19T04:16:54.872Z,98522.58
2022-10-19T04:19:22.657Z,98522.37
2022-10-19T04:21:50.543Z,98527.13
2022-10-19T04:24:19.093Z,98525.13
2022-10-19T04:26:49.755Z,98527.25
2022-10-19T04:29:19.807Z,98522.77
2022-10-19T04:31:52.242Z,98529.26
2022-10-19T04:34:20.175Z,98527.48
2022-10-19T04:36:48.082Z,98524.94
2022-10-19T04:39:16.026Z,98528.08
2022-10-19T04:41:43.840Z,98526.66
2022-10-19T04:44:11.958Z,98527.03
2022-10-19T04:46:39.913Z,98521.27
2022-10-19T04:49:07.883Z,98520.38
2022-10-19T04:51:35.856Z,98523.40
2022-10-19T04:54:04.489Z,98521.98
2022-10-19T04:56:32.853Z,98524.05
2022-10-19T04:59:01.401Z,98523.23
2022-10-19T05:01:30.915Z,98524.21
2022-10-19T05:04:01.161Z,98525.36
2022-10-19T05:06:30.861Z,98524.89
2022-10-19T05:08:59.387Z,98532.08
2022-10-19T05:11:28.042Z,98527.33
2022-10-19T05:14:00.730Z,98526.30
2022-10-19T05:16:28.649Z,98526.31
2022-10-19T05:18:58.798Z,98524.82
2022-10-19T05:21:29.028Z,98524.77
2022-10-19T05:23:57.435Z,98520.27
2022-10-19T05:26:27.357Z,98516.23
2022-10-19T05:29:01.984Z,98520.00
2022-10-19T05:31:34.466Z,98519.52
2022-10-19T05:34:04.176Z,98522.67
2022-10-19T05:36:37.143Z,98523.86
2022-10-19T05:39:16.637Z,98525.66
2022-10-19T05:41:46.342Z,98525.25
2022-10-19T05:44:24.581Z,98524.95
2022-10-19T05:46:52.821Z,98525.05
2022-10-19T05:49:22.241Z,98523.23
2022-10-19T05:51:50.801Z,98517.44
2022-10-19T05:54:18.798Z,98519.09
2022-10-19T05:56:47.536Z,98516.29
2022-10-19T05:59:18.401Z,98519.44
2022-10-19T06:01:47.532Z,98524.33
2022-10-19T06:06:46.054Z,98531.69
2022-10-19T06:09:13.922Z,98531.67
2022-10-19T06:11:42.960Z,98532.92
2022-10-19T06:14:15.804Z,98534.29
2022-10-19T06:16:46.142Z,98536.80
2022-10-19T06:19:14.590Z,98543.62
2022-10-19T06:21:45.891Z,98543.46
2022-10-19T06:24:14.269Z,98543.92
2022-10-19T06:26:42.427Z,98539.10
2022-10-19T06:29:11.464Z,98542.03
2022-10-19T06:31:39.469Z,98543.59
2022-10-19T06:34:07.591Z,98538.63
2022-10-19T06:36:35.641Z,98536.10
2022-10-19T06:39:04.274Z,98544.67
2022-10-19T06:41:32.921Z,98540.55
2022-10-19T06:44:08.800Z,98536.45
2022-10-19T06:46:36.704Z,98544.30
2022-10-19T06:49:04.513Z,98551.44
2022-10-19T06:51:34.198Z,98552.80
2022-10-19T06:54:02.106Z,98550.90
2022-10-19T06:56:29.951Z,98560.59
2022-10-19T06:58:58.462Z,98564.89
2022-10-19T07:01:26.384Z,98561.63
2022-10-19T07:03:55.371Z,98566.63
2022-10-19T07:06:23.867Z,98573.52
2022-10-19T07:08:52.348Z,98573.98
2022-10-19T07:11:22.574Z,98579.75
2022-10-19T07:13:52.631Z,98583.19
2022-10-19T07:16:21.786Z,98589.08
2022-10-19T07:18:52.080Z,98593.13
2022-10-19T07:21:22.430Z,98592.67
2022-10-19T07:23:50.613Z,98600.17
2022-10-19T07:26:23.857Z,98596.69
2022-10-19T07:28:52.492Z,98598.34
2022-10-19T07:31:22.380Z,98601.41
2022-10-19T07:33:57.975Z,98600.74
2022-10-19T07:36:27.224Z,98595.23
2022-10-19T07:38:55.205Z,98593.90
2022-10-19T07:41:24.921Z,98591.55
2022-10-19T07:43:53.864Z,98593.25
2022-10-19T07:46:25.531Z,98589.01
2022-10-19T07:48:53.823Z,98588.30
2022-10-19T07:51:22.746Z,98588.70
2022-10-19T07:53:50.636Z,98590.83
2022-10-19T07:56:21.327Z,98591.02
2022-10-19T07:58:54.573Z,98585.54
2022-10-19T08:01:28.901Z,98586.98
2022-10-19T08:04:55.619Z,98582.36
2022-10-19T08:06:46.943Z,98589.39
2022-10-19T08:09:33.514Z,98591.45
2022-10-19T08:12:04.593Z,98587.67
2022-10-19T08:14:33.253Z,98583.54
2022-10-19T08:17:01.956Z,98588.67
2022-10-19T08:19:29.936Z,98583.37
2022-10-19T08:21:57.730Z,98585.58
2022-10-19T08:24:25.543Z,98579.36
2022-10-19T08:26:53.394Z,98582.67
2022-10-19T08:29:22.673Z,98589.14
2022-10-19T08:31:53.107Z,98584.93
2022-10-19T08:34:22.144Z,98585.95
2022-10-19T08:36:49.986Z,98588.67
2022-10-19T08:39:18.353Z,98586.63
2022-10-19T08:42:03.598Z,98586.02
2022-10-19T08:44:40.282Z,98588.69
2022-10-19T08:47:19.743Z,98585.63
2022-10-19T08:49:51.203Z,98591.93
2022-10-19T08:52:34.260Z,98587.63
2022-10-19T08:55:09.238Z,98589.92
2022-10-19T08:57:53.234Z,98599.46
2022-10-19T09:00:36.076Z,98595.20
2022-10-19T09:03:37.518Z,98594.30
2022-10-19T09:06:59.356Z,98594.23
2022-10-19T09:09:30.422Z,98598.84
2022-10-19T09:12:05.533Z,98593.86
2022-10-19T09:14:42.682Z,98590.25
2022-10-19T09:17:14.334Z,98592.93
2022-10-19T09:19:42.178Z,98597.29
2022-10-19T09:22:20.753Z,98597.31
2022-10-19T09:24:52.532Z,98594.31
2022-10-19T09:27:26.189Z,98595.18
2022-10-19T09:30:01.399Z,98591.74
2022-10-19T09:32:36.103Z,98599.40
2022-10-19T09:35:17.304Z,98598.47
2022-10-19T09:37:49.354Z,98596.90
2022-10-19T09:40:20.121Z,98602.16
2022-10-19T09:42:53.055Z,98601.14
2022-10-19T09:45:33.888Z,98600.50
2022-10-19T09:48:12.770Z,98608.34
2022-10-19T09:50:44.632Z,98612.78
2022-10-19T09:53:20.339Z,98612.48
2022-10-19T09:55:58.627Z,98616.45
2022-10-19T09:58:32.203Z,98615.18
2022-10-19T10:01:03.257Z,98613.77
2022-10-19T10:03:36.447Z,98611.74
2022-10-19T10:06:08.349Z,98611.50
2022-10-19T10:08:47.075Z,98606.89
2022-10-19T10:11:23.587Z,98606.50
2022-10-19T10:13:54.292Z,98601.73
2022-10-19T10:16:25.095Z,98622.23
2022-10-19T10:19:19.297Z,98618.65
2022-10-19T10:21:49.984Z,98615.67
2022-10-19T10:24:20.802Z,98607.59
2022-10-19T10:26:54.137Z,98608.20
2022-10-19T10:29:25.608Z,98604.06
2022-10-19T10:31:59.351Z,98609.42
2022-10-19T10:34:51.896Z,98603.57
2022-10-19T10:37:28.430Z,98607.64
2022-10-19T10:40:01.888Z,98610.42
2022-10-19T10:42:43.770Z,98614.18
2022-10-19T10:45:24.057Z,98610.59
2022-10-19T10:47:53.628Z,98608.27
2022-10-19T10:50:26.122Z,98612.95
2022-10-19T10:53:00.135Z,98613.98
2022-10-19T10:55:29.161Z,98618.65
2022-10-19T10:58:34.518Z,98616.02
2022-10-19T11:01:07.638Z,98615.80
2022-10-19T11:03:39.627Z,98611.77
2022-10-19T11:06:09.199Z,98612.36
2022-10-19T11:09:08.047Z,98607.31
2022-10-19T11:11:41.969Z,98606.98
2022-10-19T11:14:36.545Z,98611.64
2022-10-19T11:17:16.315Z,98604.54
2022-10-19T11:19:47.010Z,98602.56
2022-10-19T11:22:33.327Z,98612.16
2022-10-19T11:25:27.563Z,98604.61
2022-10-19T11:28:01.031Z,98605.41
2022-10-19T11:30:41.557Z,98606.49
2022-10-19T11:33:33.879Z,98605.88
2022-10-19T11:36:17.328Z,98606.94
2022-10-19T11:38:51.485Z,98600.33
2022-10-19T11:41:42.392Z,98594.52
2022-10-19T11:44:21.311Z,98591.16
2022-10-19T11:47:21.572Z,98593.17
2022-10-19T11:49:49.438Z,98589.94
2022-10-19T11:52:51.583Z,98589.02
2022-10-19T11:55:22.262Z,98586.61
2022-10-19T11:58:06.671Z,98584.91
2022-10-19T12:00:44.528Z,98583.02
2022-10-19T12:03:59.320Z,98575.42
2022-10-19T12:06:40.418Z,98581.05
2022-10-19T12:09:21.008Z,98578.91
2022-10-19T12:12:30.715Z,98570.79
2022-10-19T12:15:15.083Z,98570.98
2022-10-19T12:17:47.721Z,98565.66
2022-10-19T12:20:42.993Z,98562.92
2022-10-19T12:23:23.107Z,98559.03
2022-10-19T12:25:51.784Z,98563.66
2022-10-19T12:28:27.881Z,98557.64
2022-10-19T12:30:57.931Z,98563.73
2022-10-19T12:33:56.362Z,98565.20
2022-10-19T12:36:33.259Z,98562.25
2022-10-19T12:39:13.437Z,98563.59
2022-10-19T12:41:41.272Z,98556.86
2022-10-19T12:47:01.727Z,98564.67
2022-10-19T12:49:29.576Z,98560.08
2022-10-19T12:51:59.848Z,98561.45
2022-10-19T12:54:31.288Z,98561.61
2022-10-19T12:57:02.792Z,98562.21
2022-10-19T12:59:36.424Z,98558.86
2022-10-19T13:02:29.870Z,98559.43
2022-10-19T13:04:58.085Z,98560.11
2022-10-19T13:07:27.586Z,98565.20
2022-10-19T13:10:04.419Z,98561.69
2022-10-19T13:12:44.570Z,98565.61
2022-10-19T13:15:34.230Z,98567.88
2022-10-19T13:18:11.623Z,98566.09
2022-10-19T13:23:28.366Z,98567.86
2022-10-19T13:26:23.268Z,98565.60
2022-10-19T13:28:55.514Z,98575.08
2022-10-19T13:31:29.575Z,98573.77
2022-10-19T13:33:58.341Z,98579.83
2022-10-19T13:36:26.872Z,98579.06
2022-10-19T13:39:00.788Z,98574.89
2022-10-19T13:41:47.068Z,98582.73
2022-10-19T13:44:16.223Z,98572.71
2022-10-19T13:46:53.786Z,98575.27
2022-10-19T13:49:32.464Z,98575.81
2022-10-19T13:52:09.360Z,98578.84
2022-10-19T13:54:43.142Z,98576.32
2022-10-19T13:57:17.929Z,98577.04
2022-10-19T14:00:13.330Z,98577.23
2022-10-19T14:02:47.279Z,98574.52
2022-10-19T14:08:37.421Z,98570.89
2022-10-19T14:11:14.436Z,98571.84
2022-10-19T14:13:43.633Z,98566.41
2022-10-19T14:16:20.542Z,98569.81
2022-10-19T14:18:56.315Z,98572.35
2022-10-19T14:21:36.946Z,98566.11
2022-10-19T14:24:20.584Z,98571.74
2022-10-19T14:26:48.532Z,98572.62
2022-10-19T14:29:16.417Z,98565.34
2022-10-19T14:31:44.324Z,98560.69
2022-10-19T14:34:14.360Z,98558.95
2022-10-19T14:36:48.975Z,98558.31
2022-10-19T14:39:43.087Z,98556.77
2022-10-19T14:42:10.954Z,98556.73
2022-10-19T14:44:43.619Z,98557.44
2022-10-19T14:47:31.760Z,98562.55
2022-10-19T14:49:59.573Z,98567.88
2022-10-19T14:52:38.352Z,98572.73
2022-10-19T14:55:17.849Z,98569.95
2022-10-19T14:57:50.664Z,98566.88
2022-10-19T15:00:21.328Z,98564.32
2022-10-19T15:03:02.051Z,98566.40
2022-10-19T15:05:34.573Z,98565.60
2022-10-19T15:08:11.628Z,98565.79
2022-10-19T15:10:44.033Z,98566.35
2022-10-19T15:13:42.277Z,98569.81
2022-10-19T15:16:30.321Z,98575.54
2022-10-19T15:19:06.957Z,98572.95
2022-10-19T15:21:34.854Z,98574.36
2022-10-19T15:24:27.603Z,98582.29
2022-10-19T15:27:08.640Z,98575.89
2022-10-19T15:29:37.638Z,98579.30
2022-10-19T15:32:22.364Z,98582.48
2022-10-19T15:34:50.611Z,98590.93
2022-10-19T15:37:21.054Z,98596.96
2022-10-19T15:39:51.292Z,98593.13
2022-10-19T15:42:40.942Z,98597.16
2022-10-19T15:45:29.216Z,98597.14
2022-10-19T15:48:28.201Z,98604.42
2022-10-19T15:50:57.036Z,98599.21
2022-10-19T15:53:26.130Z,98599.60
2022-10-19T15:55:54.060Z,98606.89
2022-10-19T15:58:21.988Z,98607.98
2022-10-19T16:00:49.842Z,98605.08
2022-10-19T16:03:17.688Z,98614.66
2022-10-19T16:05:45.787Z,98612.95
2022-10-19T16:08:13.639Z,98613.26
2022-10-19T16:10:41.552Z,98624.05
2022-10-19T16:13:09.371Z,98628.32
2022-10-19T16:15:37.479Z,98627.70
2022-10-19T16:18:05.359Z,98631.63
2022-10-19T16:20:33.244Z,98636.45
2022-10-19T16:23:01.087Z,98636.98
2022-10-19T16:25:28.944Z,98643.92
2022-10-19T16:27:56.796Z,98639.27
2022-10-19T16:30:24.635Z,98635.81
2022-10-19T16:32:53.159Z,98640.23
2022-10-19T16:35:21.010Z,98636.79
2022-10-19T16:37:48.862Z,98633.35
2022-10-19T16:40:16.796Z,98635.50
2022-10-19T16:42:44.728Z,98627.80
2022-10-19T16:45:12.567Z,98629.52
2022-10-19T16:47:40.378Z,98641.54
2022-10-19T16:50:10.131Z,98642.85
2022-10-19T16:52:38.307Z,98649.20
2022-10-19T16:55:07.063Z,98650.80
2022-10-19T16:57:35.028Z,98653.78
2022-10-19T17:00:03.050Z,98658.36
2022-10-19T17:02:30.913Z,98662.52
2022-10-19T17:04:58.720Z,98661.16
2022-10-19T17:07:26.568Z,98662.83
2022-10-19T17:09:55.039Z,98667.04
2022-10-19T17:12:22.992Z,98666.61
2022-10-19T17:14:51.402Z,98670.48
2022-10-19T17:17:19.334Z,98671.93
2022-10-19T17:19:48.334Z,98671.94
2022-10-19T17:22:16.186Z,98678.08
2022-10-19T17:24:46.383Z,98678.89
2022-10-19T17:27:14.723Z,98685.40
2022-10-19T17:29:42.800Z,98686.11
2022-10-19T17:32:10.668Z,98689.17
2022-10-19T17:34:38.718Z,98693.86
2022-10-19T17:37:06.597Z,98694.14
2022-10-19T17:39:34.573Z,98693.56
2022-10-19T17:42:04.316Z,98695.38
2022-10-19T17:44:32.558Z,98700.02
2022-10-19T17:47:01.550Z,98707.44
2022-10-19T17:49:30.095Z,98705.34
2022-10-19T17:51:58.455Z,98706.75
2022-10-19T17:54:26.526Z,98706.42
2022-10-19T17:56:54.480Z,98706.63
2022-10-19T17:59:46.771Z,98709.01
2022-10-19T18:02:20.419Z,98711.96
2022-10-19T18:04:48.256Z,98714.85
2022-10-19T18:07:16.283Z,98716.37
2022-10-19T18:09:44.189Z,98715.14
2022-10-19T18:12:13.475Z,98713.04
2022-10-19T18:14:41.573Z,98714.86
2022-10-19T18:17:09.433Z,98720.51
2022-10-19T18:19:37.373Z,98721.73
2022-10-19T18:22:05.216Z,98719.63
2022-10-19T18:24:34.777Z,98719.97
2022-10-19T18:27:02.571Z,98723.41
2022-10-19T18:29:30.444Z,98727.74
2022-10-19T18:31:59.198Z,98726.40
2022-10-19T18:34:27.338Z,98727.92
2022-10-19T18:36:55.362Z,98731.20
2022-10-19T18:39:23.504Z,98733.39
2022-10-19T18:41:54.973Z,98733.55
2022-10-19T18:44:27.138Z,98723.06
2022-10-19T18:46:57.083Z,98742.86
2022-10-19T18:49:25.754Z,98742.30
2022-10-19T18:51:55.768Z,98743.81
2022-10-19T18:54:26.371Z,98745.05
2022-10-19T18:56:54.922Z,98745.43
2022-10-19T18:59:23.200Z,98743.88
2022-10-19T19:01:51.539Z,98742.73
2022-10-19T19:04:19.471Z,98739.94
2022-10-19T19:06:47.355Z,98744.66
2022-10-19T19:09:15.232Z,98745.30
2022-10-19T19:11:43.197Z,98752.83
2022-10-19T19:14:14.381Z,98755.30
2022-10-19T19:16:43.905Z,98756.33
2022-10-19T19:19:13.715Z,98760.52
2022-10-19T19:21:44.889Z,98759.16
2022-10-19T19:24:15.550Z,98762.27
2022-10-19T19:26:49.443Z,98767.99
2022-10-19T19:29:19.361Z,98763.42
2022-10-19T19:31:48.005Z,98767.34
2022-10-19T19:34:16.304Z,98775.48
2022-10-19T19:36:48.394Z,98777.48
2022-10-19T19:39:20.099Z,98780.84
2022-10-19T19:41:49.390Z,98784.98
2022-10-19T19:44:17.942Z,98781.05
2022-10-19T19:46:46.340Z,98786.77
2022-10-19T19:49:14.593Z,98786.16
2022-10-19T19:51:42.907Z,98786.52
2022-10-19T19:54:11.563Z,98787.05
2022-10-19T19:56:40.168Z,98790.36
2022-10-19T19:59:10.341Z,98792.83
2022-10-19T20:01:39.545Z,98793.30
2022-10-19T20:04:07.432Z,98794.45
2022-10-19T20:06:37.508Z,98796.91
2022-10-19T20:09:07.123Z,98799.88
2022-10-19T20:11:38.373Z,98798.83
2022-10-19T20:14:09.114Z,98803.46
2022-10-19T20:16:37.109Z,98804.77
2022-10-19T20:19:11.090Z,98808.08
2022-10-19T20:21:40.525Z,98811.39
2022-10-19T20:24:08.885Z,98811.13
2022-10-19T20:26:37.242Z,98811.17
2022-10-19T20:29:05.627Z,98812.85
2022-10-19T20:31:39.462Z,98817.05
2022-10-19T20:34:09.025Z,98815.16
2022-10-19T20:36:36.931Z,98816.72
2022-10-19T20:39:04.835Z,98816.38
2022-10-19T20:41:32.662Z,98819.39
2022-10-19T20:44:00.635Z,98818.45
2022-10-19T20:46:30.098Z,98819.92
2022-10-19T20:49:00.208Z,98821.19
2022-10-19T20:51:32.001Z,98822.58
2022-10-19T20:54:02.653Z,98823.91
2022-10-19T20:56:32.907Z,98822.21
2022-10-19T20:59:06.319Z,98822.56
2022-10-19T21:01:36.657Z,98821.73
2022-10-19T21:04:06.410Z,98823.84
2022-10-19T21:06:38.026Z,98823.90
2022-10-19T21:09:06.513Z,98826.92
2022-10-19T21:11:36.754Z,98829.04
2022-10-19T21:14:08.786Z,98831.36
2022-10-19T21:16:37.872Z,98830.41
2022-10-19T21:19:13.129Z,98831.27
2022-10-19T21:21:46.944Z,98828.88
2022-10-19T21:24:20.839Z,98829.65
2022-10-19T21:26:48.776Z,98831.20
2022-10-19T21:29:17.238Z,98829.51
2022-10-19T21:31:48.999Z,98830.65
2022-10-19T21:34:21.260Z,98832.05
2022-10-19T21:36:49.706Z,98830.85
2022-10-19T21:39:18.427Z,98827.71
2022-10-19T21:41:46.795Z,98828.67
2022-10-19T21:44:16.525Z,98826.33
2022-10-19T21:46:46.970Z,98826.62
2022-10-19T21:49:16.519Z,98821.85
2022-10-19T21:51:46.367Z,98822.98
2022-10-19T21:54:18.007Z,98825.35
2022-10-19T21:56:46.899Z,98820.64
2022-10-19T21:59:15.399Z,98823.29
2022-10-19T22:01:43.744Z,98823.13
2022-10-19T22:04:17.292Z,98821.63
2022-10-19T22:06:45.456Z,98818.08
2022-10-19T22:09:16.549Z,98821.19
2022-10-19T22:11:45.234Z,98822.10
2022-10-19T22:14:14.928Z,98818.55
2022-10-19T22:16:42.905Z,98815.96
2022-10-19T22:19:11.972Z,98816.86
2022-10-19T22:21:40.236Z,98816.20
2022-10-19T22:24:12.238Z,98812.60
2022-10-19T22:26:42.798Z,98813.16
2022-10-19T22:29:10.661Z,98813.16
2022-10-19T22:31:38.933Z,98816.52
2022-10-19T22:34:10.235Z,98813.23
2022-10-19T22:36:38.315Z,98818.58
2022-10-19T22:39:07.156Z,98818.65
2022-10-19T22:41:35.113Z,98823.38
2022-10-19T22:44:03.010Z,98821.11
2022-10-19T22:46:30.995Z,98823.52
2022-10-19T22:48:58.997Z,98822.29
2022-10-19T22:51:26.978Z,98819.05
2022-10-19T22:53:54.835Z,98820.77
2022-10-19T22:56:22.799Z,98823.01
2022-10-19T22:58:50.727Z,98825.80
2022-10-19T23:01:19.496Z,98827.61
2022-10-19T23:03:47.471Z,98826.17
2022-10-19T23:06:15.891Z,98830.14
2022-10-19T23:08:44.824Z,98829.49
2022-10-19T23:11:13.029Z,98834.36
2022-10-19T23:13:42.017Z,98838.05
2022-10-19T23:16:10.622Z,98839.38
2022-10-19T23:18:40.826Z,98841.08
2022-10-19T23:21:11.863Z,98845.25
2022-10-19T23:23:40.447Z,98845.73
2022-10-19T23:26:14.193Z,98846.95
2022-10-19T23:28:44.029Z,98847.76
2022-10-19T23:31:20.450Z,98854.77
2022-10-19T23:33:48.424Z,98854.17
2022-10-19T23:36:20.195Z,98855.61
2022-10-19T23:38:50.039Z,98858.41
2022-10-19T23:41:18.877Z,98855.70
2022-10-19T23:43:47.262Z,98854.05
2022-10-19T23:46:15.418Z,98858.14
2022-10-19T23:53:10.233Z,98861.02
2022-10-19T23:55:38.126Z,98865.57
2022-10-19T23:58:05.964Z,98871.66
